createdAt,value
2022-10-16T00:01:36.069Z,15.86
2022-10-16T00:04:08.205Z,15.83
2022-10-16T00:06:40.340Z,15.88
2022-10-16T00:09:12.236Z,15.93
2022-10-16T00:11:44.621Z,15.96
2022-10-16T00:14:18.144Z,15.91
2022-10-16T00:16:50.316Z,15.77
2022-10-16T00:19:22.375Z,15.97
2022-10-16T00:21:54.270Z,16.02
2022-10-16T00:24:26.093Z,16.08
2022-10-16T00:26:58.107Z,16.06
2022-10-16T00:29:30.103Z,15.95
2022-10-16T00:32:02.993Z,15.88
2022-10-16T00:34:35.402Z,15.98
2022-10-16T00:37:07.789Z,15.90
2022-10-16T00:39:39.929Z,16.04
2022-10-16T00:42:16.806Z,16.07
2022-10-16T00:44:53.582Z,16.05
2022-10-16T00:47:30.029Z,16.09
2022-10-16T00:50:08.459Z,16.15
2022-10-16T00:52:45.288Z,16.09
2022-10-16T00:55:17.746Z,16.10
2022-10-16T00:58:00.398Z,16.22
2022-10-16T01:00:36.079Z,16.22
2022-10-16T01:03:28.907Z,16.14
2022-10-16T01:06:22.132Z,16.01
2022-10-16T01:09:04.362Z,16.13
2022-10-16T01:11:43.734Z,16.26
2022-10-16T01:14:24.243Z,16.23
2022-10-16T01:17:04.057Z,16.24
2022-10-16T01:20:02.871Z,16.25
2022-10-16T01:22:44.219Z,16.28
2022-10-16T01:25:25.153Z,16.29
2022-10-16T01:27:58.062Z,16.29
2022-10-16T01:30:34.914Z,16.33
2022-10-16T01:33:16.322Z,16.29
2022-10-16T01:35:53.775Z,16.31
2022-10-16T01:38:32.689Z,16.35
2022-10-16T01:41:13.478Z,16.28
2022-10-16T01:43:48.819Z,16.29
2022-10-16T01:46:23.173Z,16.18
2022-10-16T01:48:56.106Z,16.16
2022-10-16T01:51:29.952Z,16.14
2022-10-16T01:54:03.807Z,16.24
2022-10-16T01:56:36.911Z,16.31
2022-10-16T01:59:14.052Z,16.39
2022-10-16T02:01:51.234Z,16.44
2022-10-16T02:04:30.245Z,16.43
2022-10-16T02:07:02.927Z,16.43
2022-10-16T02:09:37.309Z,16.48
2022-10-16T02:12:17.444Z,16.43
2022-10-16T02:14:49.399Z,16.47
2022-10-16T02:17:22.412Z,16.43
2022-10-16T02:19:56.919Z,16.30
2022-10-16T02:22:33.173Z,16.40
2022-10-16T02:25:08.331Z,16.41
2022-10-16T02:27:48.326Z,16.34
2022-10-16T02:30:25.525Z,16.41
2022-10-16T02:32:59.056Z,16.44
2022-10-16T02:35:32.558Z,16.35
2022-10-16T02:38:05.379Z,16.35
2022-10-16T02:40:37.853Z,16.35
2022-10-16T02:43:11.611Z,16.31
2022-10-16T02:45:43.897Z,16.36
2022-10-16T02:48:16.344Z,16.39
2022-10-16T02:50:48.396Z,16.41
2022-10-16T02:53:20.395Z,16.49
2022-10-16T02:55:52.252Z,16.40
2022-10-16T02:58:24.180Z,16.47
2022-10-16T03:00:56.973Z,16.48
2022-10-16T03:03:29.092Z,16.43
2022-10-16T03:06:01.024Z,16.47
2022-10-16T03:08:33.171Z,16.51
2022-10-16T03:11:05.465Z,16.46
2022-10-16T03:13:37.330Z,16.51
2022-10-16T03:16:09.377Z,16.52
2022-10-16T03:18:41.668Z,16.58
2022-10-16T03:21:13.800Z,16.53
2022-10-16T03:23:45.878Z,16.51
2022-10-16T03:26:17.872Z,16.50
2022-10-16T03:28:49.926Z,16.38
2022-10-16T03:31:22.154Z,16.41
2022-10-16T03:33:54.108Z,16.45
2022-10-16T03:36:26.130Z,16.45
2022-10-16T03:38:58.178Z,16.42
2022-10-16T03:41:30.196Z,16.46
2022-10-16T03:44:02.072Z,16.50
2022-10-16T03:46:34.805Z,16.43
2022-10-16T03:49:09.637Z,16.49
2022-10-16T03:51:42.265Z,16.49
2022-10-16T03:54:14.749Z,16.44
2022-10-16T03:56:46.674Z,16.51
2022-10-16T03:59:19.113Z,16.44
2022-10-16T04:01:51.370Z,16.46
2022-10-16T04:04:23.725Z,16.53
2022-10-16T04:06:55.729Z,16.57
2022-10-16T04:09:27.780Z,16.54
2022-10-16T04:11:59.553Z,16.60
2022-10-16T04:14:31.722Z,16.59
2022-10-16T04:17:03.630Z,16.55
2022-10-16T04:19:35.765Z,16.63
2022-10-16T04:22:07.916Z,16.64
2022-10-16T04:24:39.980Z,16.65
2022-10-16T04:27:14.701Z,16.51
2022-10-16T04:29:46.982Z,16.59
2022-10-16T04:32:18.926Z,16.65
2022-10-16T04:34:50.976Z,16.60
2022-10-16T04:37:27.840Z,16.56
2022-10-16T04:39:59.971Z,16.63
2022-10-16T04:42:31.882Z,16.63
2022-10-16T04:45:03.797Z,16.63
2022-10-16T04:47:36.493Z,16.63
2022-10-16T04:50:09.846Z,16.58
2022-10-16T04:52:42.460Z,16.58
2022-10-16T04:55:14.469Z,16.54
2022-10-16T04:57:46.571Z,16.45
2022-10-16T05:00:19.230Z,16.53
2022-10-16T05:02:51.563Z,16.63
2022-10-16T05:05:24.145Z,16.66
2022-10-16T05:07:56.427Z,16.65
2022-10-16T05:10:29.174Z,16.75
2022-10-16T05:13:01.331Z,16.74
2022-10-16T05:15:33.482Z,16.72
2022-10-16T05:18:05.920Z,16.66
2022-10-16T05:20:38.873Z,16.65
2022-10-16T05:25:59.363Z,16.70
2022-10-16T05:28:32.264Z,16.71
2022-10-16T05:31:08.209Z,16.72
2022-10-16T05:33:40.291Z,16.71
2022-10-16T05:36:14.009Z,16.74
2022-10-16T05:38:46.184Z,16.67
2022-10-16T05:41:22.403Z,16.63
2022-10-16T05:43:54.522Z,16.65
2022-10-16T05:46:27.286Z,16.66
2022-10-16T05:48:59.322Z,16.69
2022-10-16T05:51:32.007Z,16.61
2022-10-16T05:54:04.346Z,16.60
2022-10-16T05:56:36.301Z,16.59
2022-10-16T05:59:08.323Z,16.46
2022-10-16T06:01:42.156Z,16.61
2022-10-16T06:04:14.033Z,16.67
2022-10-16T06:06:46.276Z,16.68
2022-10-16T06:09:18.441Z,16.61
2022-10-16T06:11:51.005Z,16.64
2022-10-16T06:14:22.934Z,16.64
2022-10-16T06:16:54.839Z,16.68
2022-10-16T06:19:26.837Z,16.75
2022-10-16T06:21:59.401Z,16.78
2022-10-16T06:24:31.519Z,16.71
2022-10-16T06:27:04.937Z,16.68
2022-10-16T06:29:36.807Z,16.63
2022-10-16T06:32:08.917Z,16.66
2022-10-16T06:34:44.108Z,16.67
2022-10-16T06:37:16.417Z,16.64
2022-10-16T06:39:48.336Z,16.57
2022-10-16T06:42:20.324Z,16.65
2022-10-16T06:44:52.162Z,16.66
2022-10-16T06:47:24.281Z,16.35
2022-10-16T06:49:56.277Z,16.53
2022-10-16T06:52:29.743Z,16.62
2022-10-16T06:55:01.916Z,16.64
2022-10-16T06:57:33.907Z,16.61
2022-10-16T07:00:07.571Z,16.62
2022-10-16T07:02:39.441Z,16.72
2022-10-16T07:05:11.897Z,16.84
2022-10-16T07:07:43.738Z,16.75
2022-10-16T07:10:15.609Z,16.75
2022-10-16T07:12:48.020Z,16.80
2022-10-16T07:15:19.995Z,16.98
2022-10-16T07:17:51.874Z,16.96
2022-10-16T07:20:24.212Z,16.88
2022-10-16T07:22:56.906Z,17.03
2022-10-16T07:25:29.056Z,17.08
2022-10-16T07:28:01.042Z,17.11
2022-10-16T07:30:32.951Z,17.10
2022-10-16T07:33:04.904Z,17.18
2022-10-16T07:35:36.832Z,17.26
2022-10-16T07:38:08.723Z,17.27
2022-10-16T07:40:40.651Z,17.13
2022-10-16T07:43:12.888Z,17.17
2022-10-16T07:48:32.592Z,17.22
2022-10-16T07:51:06.233Z,17.18
2022-10-16T07:53:38.364Z,17.18
2022-10-16T07:56:11.327Z,17.30
2022-10-16T07:58:43.249Z,17.39
2022-10-16T08:01:17.050Z,17.31
2022-10-16T08:03:51.004Z,17.33
2022-10-16T08:06:27.660Z,17.26
2022-10-16T08:09:01.023Z,17.41
2022-10-16T08:11:33.128Z,17.39
2022-10-16T08:14:06.587Z,17.37
2022-10-16T08:16:38.508Z,17.52
2022-10-16T08:19:10.534Z,17.59
2022-10-16T08:21:42.868Z,17.67
2022-10-16T08:24:15.130Z,17.63
2022-10-16T08:26:47.554Z,17.61
2022-10-16T08:29:19.590Z,17.74
2022-10-16T08:31:51.513Z,17.85
2022-10-16T08:34:23.461Z,17.88
2022-10-16T08:36:56.549Z,17.85
2022-10-16T08:39:28.462Z,17.84
2022-10-16T08:42:18.986Z,17.72
2022-10-16T08:45:08.799Z,17.82
2022-10-16T08:47:50.907Z,17.83
2022-10-16T08:50:28.082Z,17.92
2022-10-16T08:53:01.155Z,18.02
2022-10-16T08:55:39.435Z,18.10
2022-10-16T08:58:17.756Z,18.15
2022-10-16T09:00:52.862Z,18.09
2022-10-16T09:03:35.678Z,18.22
2022-10-16T09:06:18.581Z,18.28
2022-10-16T09:09:05.747Z,18.39
2022-10-16T09:11:47.738Z,18.49
2022-10-16T09:14:42.535Z,18.45
2022-10-16T09:17:29.639Z,18.60
2022-10-16T09:20:15.905Z,18.74
2022-10-16T09:22:48.151Z,18.77
2022-10-16T09:25:23.184Z,18.92
2022-10-16T09:27:57.796Z,19.09
2022-10-16T09:30:31.506Z,19.20
2022-10-16T09:33:03.909Z,19.34
2022-10-16T09:35:40.852Z,19.36
2022-10-16T09:38:23.271Z,19.45
2022-10-16T09:41:02.391Z,19.68
2022-10-16T09:43:42.270Z,19.76
2022-10-16T09:46:29.239Z,19.75
2022-10-16T09:49:03.237Z,19.88
2022-10-16T09:51:37.528Z,19.89
2022-10-16T09:54:19.789Z,19.80
2022-10-16T09:56:53.140Z,19.84
2022-10-16T09:59:27.985Z,19.84
2022-10-16T10:02:04.531Z,19.83
2022-10-16T10:04:46.734Z,19.87
2022-10-16T10:07:27.543Z,19.87
2022-10-16T10:10:24.724Z,19.79
2022-10-16T10:12:58.182Z,19.74
2022-10-16T10:15:44.132Z,19.55
2022-10-16T10:18:25.178Z,19.61
2022-10-16T10:21:06.962Z,19.60
2022-10-16T10:23:39.227Z,19.64
2022-10-16T10:26:18.649Z,19.64
2022-10-16T10:29:03.788Z,19.68
2022-10-16T10:31:44.652Z,19.74
2022-10-16T10:34:43.815Z,19.92
2022-10-16T10:37:32.116Z,20.11
2022-10-16T10:40:15.959Z,20.15
2022-10-16T10:42:55.244Z,20.42
2022-10-16T10:45:45.204Z,20.52
2022-10-16T10:48:45.025Z,20.56
2022-10-16T10:51:26.867Z,20.59
2022-10-16T10:54:07.457Z,20.50
2022-10-16T10:56:53.135Z,20.48
2022-10-16T11:00:05.978Z,20.54
2022-10-16T11:02:44.051Z,20.46
2022-10-16T11:05:29.694Z,20.34
2022-10-16T11:08:06.421Z,20.33
2022-10-16T11:10:50.442Z,20.45
2022-10-16T11:13:33.561Z,20.92
2022-10-16T11:16:15.252Z,21.16
2022-10-16T11:18:57.850Z,21.05
2022-10-16T11:21:31.734Z,21.07
2022-10-16T11:24:08.868Z,21.05
2022-10-16T11:26:45.438Z,21.00
2022-10-16T11:29:21.849Z,20.92
2022-10-16T11:31:59.249Z,20.90
2022-10-16T11:34:37.776Z,20.90
2022-10-16T11:37:14.782Z,20.79
2022-10-16T11:39:48.371Z,20.72
2022-10-16T11:42:29.207Z,20.65
2022-10-16T11:45:10.111Z,20.66
2022-10-16T11:48:02.355Z,20.65
2022-10-16T11:50:39.697Z,20.62
2022-10-16T11:53:20.878Z,20.71
2022-10-16T11:55:52.947Z,20.47
2022-10-16T11:58:31.906Z,20.70
2022-10-16T12:01:15.709Z,20.79
2022-10-16T12:03:57.959Z,20.79
2022-10-16T12:06:36.430Z,20.87
2022-10-16T12:09:15.547Z,20.91
2022-10-16T12:11:47.820Z,20.90
2022-10-16T12:17:38.570Z,21.01
2022-10-16T12:20:32.113Z,21.17
2022-10-16T12:23:07.253Z,21.17
2022-10-16T12:25:47.472Z,21.17
2022-10-16T12:28:24.966Z,21.15
2022-10-16T12:31:02.222Z,21.11
2022-10-16T12:33:36.440Z,21.17
2022-10-16T12:36:16.235Z,21.06
2022-10-16T12:38:52.727Z,21.15
2022-10-16T12:41:31.352Z,21.27
2022-10-16T12:44:03.876Z,21.61
2022-10-16T12:46:42.342Z,21.86
2022-10-16T12:49:31.998Z,21.75
2022-10-16T12:52:04.440Z,21.58
2022-10-16T12:54:41.156Z,21.63
2022-10-16T12:57:38.979Z,21.76
2022-10-16T13:00:23.805Z,21.56
2022-10-16T13:03:35.135Z,21.41
2022-10-16T13:06:17.611Z,21.44
2022-10-16T13:09:04.728Z,21.44
2022-10-16T13:11:51.307Z,21.29
2022-10-16T13:14:45.661Z,21.34
2022-10-16T13:17:25.248Z,21.39
2022-10-16T13:20:08.767Z,21.43
2022-10-16T13:22:53.799Z,21.41
2022-10-16T13:25:39.358Z,21.28
2022-10-16T13:28:12.735Z,21.29
2022-10-16T13:30:53.114Z,21.35
2022-10-16T13:33:32.738Z,21.26
2022-10-16T13:36:05.432Z,21.29
2022-10-16T13:38:38.436Z,21.19
2022-10-16T13:41:18.751Z,21.30
2022-10-16T13:43:52.790Z,21.21
2022-10-16T13:46:26.137Z,21.17
2022-10-16T13:49:02.399Z,21.15
2022-10-16T13:51:35.471Z,21.11
2022-10-16T13:54:07.470Z,21.02
2022-10-16T13:56:40.725Z,20.96
2022-10-16T13:59:29.601Z,20.96
2022-10-16T14:02:07.804Z,21.02
2022-10-16T14:04:42.740Z,21.02
2022-10-16T14:07:21.579Z,21.02
2022-10-16T14:09:54.880Z,21.05
2022-10-16T14:12:28.447Z,21.04
2022-10-16T14:15:02.358Z,21.06
2022-10-16T14:17:37.135Z,21.10
2022-10-16T14:20:16.763Z,21.08
2022-10-16T14:22:49.072Z,21.03
2022-10-16T14:25:28.617Z,20.96
2022-10-16T14:28:17.654Z,20.93
2022-10-16T14:30:58.024Z,20.79
2022-10-16T14:33:35.943Z,20.84
2022-10-16T14:36:13.787Z,20.88
2022-10-16T14:38:56.585Z,20.80
2022-10-16T14:41:29.064Z,20.79
2022-10-16T14:44:05.864Z,20.75
2022-10-16T14:46:42.451Z,20.81
2022-10-16T14:49:21.354Z,20.77
2022-10-16T14:51:54.045Z,20.70
2022-10-16T14:54:25.976Z,20.77
2022-10-16T14:57:00.542Z,20.74
2022-10-16T14:59:35.991Z,20.71
2022-10-16T15:02:23.228Z,20.64
2022-10-16T15:04:55.219Z,20.69
2022-10-16T15:07:28.153Z,20.65
2022-10-16T15:10:00.453Z,20.62
2022-10-16T15:12:32.997Z,20.59
2022-10-16T15:15:17.767Z,20.54
2022-10-16T15:17:53.580Z,20.50
2022-10-16T15:20:26.127Z,20.52
2022-10-16T15:22:58.196Z,20.46
2022-10-16T15:25:38.038Z,20.45
2022-10-16T15:28:12.675Z,20.28
2022-10-16T15:30:46.589Z,20.40
2022-10-16T15:33:20.535Z,20.37
2022-10-16T15:35:53.800Z,20.30
2022-10-16T15:38:29.898Z,20.24
2022-10-16T15:41:01.887Z,20.19
2022-10-16T15:43:33.855Z,20.15
2022-10-16T15:46:08.070Z,20.10
2022-10-16T15:48:41.035Z,20.03
2022-10-16T15:51:13.366Z,19.98
2022-10-16T15:53:47.369Z,19.92
2022-10-16T15:56:19.820Z,19.89
2022-10-16T15:58:52.009Z,19.82
2022-10-16T16:01:24.034Z,19.77
2022-10-16T16:03:57.812Z,19.70
2022-10-16T16:06:30.584Z,19.63
2022-10-16T16:11:40.218Z,19.55
2022-10-16T16:14:14.834Z,19.51
2022-10-16T16:16:47.175Z,19.46
2022-10-16T16:19:22.037Z,19.35
2022-10-16T16:21:54.465Z,19.38
2022-10-16T16:24:26.764Z,19.34
2022-10-16T16:26:58.837Z,19.30
2022-10-16T16:29:30.801Z,19.26
2022-10-16T16:32:03.101Z,19.20
2022-10-16T16:34:35.552Z,19.10
2022-10-16T16:37:07.522Z,19.12
2022-10-16T16:39:39.530Z,19.06
2022-10-16T16:42:11.611Z,19.01
2022-10-16T16:44:43.724Z,18.95
2022-10-16T16:47:15.879Z,18.90
2022-10-16T16:49:48.450Z,18.86
2022-10-16T16:52:20.580Z,18.80
2022-10-16T16:54:53.274Z,18.74
2022-10-16T16:57:26.610Z,18.68
2022-10-16T16:59:58.791Z,18.54
2022-10-16T17:02:30.860Z,18.54
2022-10-16T17:05:02.887Z,18.50
2022-10-16T17:07:36.600Z,18.43
2022-10-16T17:10:09.902Z,18.38
2022-10-16T17:12:42.103Z,18.33
2022-10-16T17:15:15.123Z,18.32
2022-10-16T17:17:47.201Z,18.28
2022-10-16T17:20:19.447Z,18.23
2022-10-16T17:22:52.017Z,18.19
2022-10-16T17:25:25.209Z,18.16
2022-10-16T17:27:57.509Z,18.14
2022-10-16T17:30:29.967Z,18.13
2022-10-16T17:33:02.783Z,18.10
2022-10-16T17:35:39.771Z,18.07
2022-10-16T17:38:12.806Z,18.02
2022-10-16T17:40:44.765Z,17.99
2022-10-16T17:43:16.821Z,17.98
2022-10-16T17:45:48.909Z,17.95
2022-10-16T17:48:20.990Z,17.92
2022-10-16T17:50:53.195Z,17.88
2022-10-16T17:53:25.111Z,17.86
2022-10-16T17:55:59.416Z,17.84
2022-10-16T17:58:31.415Z,17.82
2022-10-16T18:01:12.852Z,17.79
2022-10-16T18:03:45.028Z,17.76
2022-10-16T18:06:22.574Z,17.73
2022-10-16T18:08:56.448Z,17.68
2022-10-16T18:11:29.299Z,17.64
2022-10-16T18:14:02.282Z,17.59
2022-10-16T18:16:36.752Z,17.41
2022-10-16T18:19:10.349Z,17.56
2022-10-16T18:21:42.663Z,17.53
2022-10-16T18:24:14.744Z,17.48
2022-10-16T18:26:47.957Z,17.44
2022-10-16T18:29:20.337Z,17.41
2022-10-16T18:31:52.997Z,17.38
2022-10-16T18:34:26.993Z,17.33
2022-10-16T18:36:58.890Z,17.28
2022-10-16T18:39:31.130Z,17.26
2022-10-16T18:42:03.018Z,17.22
2022-10-16T18:44:35.428Z,17.20
2022-10-16T18:47:08.048Z,17.17
2022-10-16T18:49:40.654Z,17.16
2022-10-16T18:52:13.021Z,17.14
2022-10-16T18:54:45.065Z,17.12
2022-10-16T18:57:17.186Z,17.07
2022-10-16T18:59:49.993Z,17.05
2022-10-16T19:02:21.935Z,17.08
2022-10-16T19:04:53.982Z,17.08
2022-10-16T19:07:26.335Z,17.08
2022-10-16T19:09:58.842Z,17.08
2022-10-16T19:12:32.672Z,17.06
2022-10-16T19:15:05.063Z,17.04
2022-10-16T19:17:38.210Z,17.02
2022-10-16T19:20:11.782Z,16.92
2022-10-16T19:22:56.627Z,16.97
2022-10-16T19:25:28.790Z,16.93
2022-10-16T19:28:01.871Z,16.84
2022-10-16T19:30:38.919Z,16.90
2022-10-16T19:33:11.965Z,16.88
2022-10-16T19:35:44.135Z,16.86
2022-10-16T19:38:16.019Z,16.84
2022-10-16T19:40:48.231Z,16.80
2022-10-16T19:43:20.172Z,16.74
2022-10-16T19:45:52.184Z,16.72
2022-10-16T19:51:02.714Z,16.72
2022-10-16T19:53:35.347Z,16.71
2022-10-16T19:56:15.302Z,16.72
2022-10-16T19:58:48.258Z,16.73
2022-10-16T20:01:20.884Z,16.72
2022-10-16T20:03:53.302Z,16.69
2022-10-16T20:06:26.110Z,16.68
2022-10-16T20:08:58.711Z,16.65
2022-10-16T20:11:33.804Z,16.64
2022-10-16T20:14:04.918Z,16.62
2022-10-16T20:16:37.237Z,16.60
2022-10-16T20:19:09.131Z,16.55
2022-10-16T20:21:41.358Z,16.53
2022-10-16T20:24:13.920Z,16.50
2022-10-16T20:26:46.091Z,16.50
2022-10-16T20:29:18.915Z,16.50
2022-10-16T20:31:50.885Z,16.47
2022-10-16T20:34:23.167Z,16.44
2022-10-16T20:36:55.119Z,16.46
2022-10-16T20:39:27.069Z,16.45
2022-10-16T20:41:59.004Z,16.43
2022-10-16T20:44:30.978Z,16.37
2022-10-16T20:47:03.180Z,16.43
2022-10-16T20:49:40.674Z,16.43
2022-10-16T20:52:13.066Z,16.42
2022-10-16T20:54:47.189Z,16.44
2022-10-16T20:57:19.183Z,16.43
2022-10-16T20:59:55.600Z,16.46
2022-10-16T21:02:27.928Z,16.46
2022-10-16T21:05:00.091Z,16.45
2022-10-16T21:07:32.330Z,16.43
2022-10-16T21:10:05.735Z,16.38
2022-10-16T21:12:37.697Z,16.35
2022-10-16T21:15:15.459Z,16.39
2022-10-16T21:17:47.880Z,16.40
2022-10-16T21:20:20.281Z,16.40
2022-10-16T21:22:52.422Z,16.40
2022-10-16T21:25:24.581Z,16.39
2022-10-16T21:27:56.738Z,16.37
2022-10-16T21:30:28.895Z,16.39
2022-10-16T21:33:00.841Z,16.38
2022-10-16T21:35:33.277Z,16.40
2022-10-16T21:38:06.715Z,16.42
2022-10-16T21:40:38.785Z,16.34
2022-10-16T21:43:11.107Z,16.36
2022-10-16T21:45:43.054Z,16.45
2022-10-16T21:48:15.137Z,16.45
2022-10-16T21:50:51.762Z,16.46
2022-10-16T21:53:23.918Z,16.48
2022-10-16T21:55:56.064Z,16.53
2022-10-16T21:58:28.516Z,16.55
2022-10-16T22:01:00.404Z,16.56
2022-10-16T22:03:32.318Z,16.57
2022-10-16T22:06:06.843Z,16.58
2022-10-16T22:08:39.789Z,16.58
2022-10-16T22:11:14.014Z,16.60
2022-10-16T22:13:46.641Z,16.60
2022-10-16T22:16:22.671Z,16.60
2022-10-16T22:18:56.153Z,16.61
2022-10-16T22:21:28.440Z,16.62
2022-10-16T22:24:01.348Z,16.63
2022-10-16T22:26:33.666Z,16.65
2022-10-16T22:29:06.016Z,16.65
2022-10-16T22:31:37.953Z,16.67
2022-10-16T22:34:12.551Z,16.68
2022-10-16T22:36:46.422Z,16.70
2022-10-16T22:39:19.640Z,16.71
2022-10-16T22:41:51.545Z,16.72
2022-10-16T22:44:23.430Z,16.73
2022-10-16T22:46:55.529Z,16.74
2022-10-16T22:49:31.716Z,16.76
2022-10-16T22:52:05.754Z,16.77
2022-10-16T22:54:38.176Z,16.78
2022-10-16T22:57:10.267Z,16.78
2022-10-16T22:59:46.229Z,16.81
2022-10-16T23:02:18.220Z,16.82
2022-10-16T23:04:50.155Z,16.83
2022-10-16T23:07:22.010Z,16.85
2022-10-16T23:09:54.798Z,16.86
2022-10-16T23:12:28.100Z,16.87
2022-10-16T23:15:00.435Z,16.88
2022-10-16T23:17:32.676Z,16.89
2022-10-16T23:20:05.165Z,16.91
2022-10-16T23:22:37.047Z,16.91
2022-10-16T23:25:09.972Z,16.91
2022-10-16T23:27:44.139Z,16.92
2022-10-16T23:30:16.221Z,16.93
2022-10-16T23:32:48.212Z,16.94
2022-10-16T23:35:20.616Z,16.94
2022-10-16T23:37:53.058Z,16.95
2022-10-16T23:40:25.271Z,16.94
2022-10-16T23:42:57.453Z,16.96
2022-10-16T23:45:29.788Z,16.97
2022-10-16T23:48:01.653Z,16.98
2022-10-16T23:50:33.782Z,16.97
2022-10-16T23:53:09.396Z,16.98
2022-10-16T23:55:44.418Z,16.98
2022-10-16T23:58:16.793Z,16.98
